createdAt,value
2022-09-07T00:00:43.937Z,1.70
2022-09-07T00:03:10.709Z,1.63
2022-09-07T00:05:44.882Z,2.50
2022-09-07T00:08:12.286Z,2.40
2022-09-07T00:10:39.407Z,2.67
2022-09-07T00:13:06.591Z,2.57
2022-09-07T00:15:33.633Z,1.67
2022-09-07T00:18:00.303Z,1.67
2022-09-07T00:20:27.034Z,1.50
2022-09-07T00:22:53.717Z,1.63
2022-09-07T00:25:20.310Z,1.40
2022-09-07T00:27:47.125Z,1.37
2022-09-07T00:30:13.754Z,1.37
2022-09-07T00:32:40.483Z,1.50
2022-09-07T00:35:07.203Z,1.80
2022-09-07T00:37:33.746Z,1.30
2022-09-07T00:40:00.873Z,1.60
2022-09-07T00:42:27.482Z,1.70
2022-09-07T00:45:06.509Z,1.63
2022-09-07T00:48:04.592Z,1.40
2022-09-07T00:50:32.541Z,1.40
2022-09-07T00:53:16.205Z,1.23
2022-09-07T00:55:43.697Z,1.50
2022-09-07T00:58:10.860Z,1.37
2022-09-07T01:00:37.624Z,1.47
2022-09-07T01:03:04.767Z,1.40
2022-09-07T01:05:40.508Z,1.43
2022-09-07T01:08:07.544Z,1.43
2022-09-07T01:10:34.854Z,1.70
2022-09-07T01:13:01.618Z,1.33
2022-09-07T01:15:42.095Z,1.30
2022-09-07T01:18:48.224Z,1.60
2022-09-07T01:21:56.026Z,1.63
2022-09-07T01:24:22.669Z,1.27
2022-09-07T01:26:52.468Z,1.63
2022-09-07T01:29:52.576Z,1.60
2022-09-07T01:32:43.574Z,1.30
2022-09-07T01:35:40.830Z,1.87
2022-09-07T01:38:21.059Z,1.10
2022-09-07T01:40:56.757Z,1.80
2022-09-07T01:43:34.278Z,1.60
2022-09-07T01:46:03.826Z,1.90
2022-09-07T01:48:33.941Z,2.03
2022-09-07T01:51:02.986Z,1.63
2022-09-07T01:53:32.532Z,1.50
2022-09-07T01:56:10.806Z,1.93
2022-09-07T01:58:48.816Z,1.80
2022-09-07T02:01:31.154Z,1.80
2022-09-07T02:04:05.314Z,1.50
2022-09-07T02:06:37.997Z,2.00
2022-09-07T02:09:38.700Z,1.73
2022-09-07T02:12:36.928Z,1.40
2022-09-07T02:15:07.115Z,1.60
2022-09-07T02:17:35.890Z,1.60
2022-09-07T02:20:15.649Z,1.43
2022-09-07T02:22:45.482Z,1.57
2022-09-07T02:25:14.331Z,1.63
2022-09-07T02:27:51.279Z,1.63
2022-09-07T02:30:18.099Z,1.13
2022-09-07T02:32:44.845Z,1.67
2022-09-07T02:35:12.103Z,1.60
2022-09-07T02:37:39.202Z,1.30
2022-09-07T02:40:07.015Z,1.03
2022-09-07T02:42:34.403Z,1.10
2022-09-07T02:45:02.558Z,1.30
2022-09-07T02:48:04.604Z,1.30
2022-09-07T02:50:50.086Z,1.20
2022-09-07T02:53:22.311Z,1.30
2022-09-07T02:56:06.417Z,1.07
2022-09-07T02:59:07.767Z,1.30
2022-09-07T03:01:45.141Z,1.43
2022-09-07T03:04:15.595Z,1.30
2022-09-07T03:06:52.636Z,1.10
2022-09-07T03:09:22.122Z,1.50
2022-09-07T03:11:49.195Z,1.00
2022-09-07T03:14:15.842Z,1.20
2022-09-07T03:16:43.036Z,1.47
2022-09-07T03:19:09.749Z,1.67
2022-09-07T03:21:36.288Z,1.37
2022-09-07T03:24:03.200Z,1.60
2022-09-07T03:26:29.864Z,1.53
2022-09-07T03:28:56.577Z,1.30
2022-09-07T03:31:23.210Z,1.30
2022-09-07T03:33:49.961Z,1.30
2022-09-07T03:36:16.575Z,1.30
2022-09-07T03:38:43.122Z,1.60
2022-09-07T03:41:09.634Z,1.40
2022-09-07T03:43:36.202Z,1.20
2022-09-07T03:46:04.696Z,1.50
2022-09-07T03:48:32.779Z,1.50
2022-09-07T03:51:01.551Z,1.67
2022-09-07T03:53:30.844Z,1.50
2022-09-07T03:56:02.442Z,1.30
2022-09-07T03:58:30.600Z,1.40
2022-09-07T04:00:57.621Z,1.40
2022-09-07T04:03:24.514Z,2.10
2022-09-07T04:05:51.024Z,1.60
2022-09-07T04:08:17.677Z,1.83
2022-09-07T04:10:44.251Z,1.60
2022-09-07T04:13:11.039Z,1.50
2022-09-07T04:15:37.688Z,1.80
2022-09-07T04:18:04.342Z,1.50
2022-09-07T04:20:31.465Z,1.80
2022-09-07T04:22:58.003Z,1.53
2022-09-07T04:25:24.641Z,1.63
2022-09-07T04:27:51.154Z,1.50
2022-09-07T04:30:17.783Z,1.80
2022-09-07T04:32:46.388Z,1.57
2022-09-07T04:35:13.314Z,1.60
2022-09-07T04:37:39.872Z,1.90
2022-09-07T04:40:06.996Z,1.40
2022-09-07T04:42:33.634Z,1.47
2022-09-07T04:45:00.315Z,1.70
2022-09-07T04:47:26.941Z,1.67
2022-09-07T04:49:53.481Z,1.90
2022-09-07T04:52:20.183Z,2.27
2022-09-07T04:54:50.570Z,2.00
2022-09-07T04:57:21.704Z,1.53
2022-09-07T04:59:48.930Z,2.20
2022-09-07T05:02:15.752Z,2.10
2022-09-07T05:04:42.746Z,2.00
2022-09-07T05:07:09.329Z,1.80
2022-09-07T05:09:36.800Z,2.13
2022-09-07T05:12:03.393Z,1.83
2022-09-07T05:14:29.956Z,1.87
2022-09-07T05:16:56.491Z,2.10
2022-09-07T05:19:24.571Z,1.73
2022-09-07T05:21:51.239Z,2.00
2022-09-07T05:24:17.923Z,2.07
2022-09-07T05:26:44.430Z,1.80
2022-09-07T05:31:58.690Z,1.63
2022-09-07T05:36:54.794Z,2.00
2022-09-07T05:39:21.449Z,1.77
2022-09-07T05:41:48.058Z,2.10
2022-09-07T05:47:01.223Z,1.90
2022-09-07T05:49:27.862Z,1.80
2022-09-07T05:51:54.525Z,2.03
2022-09-07T05:54:21.114Z,2.33
2022-09-07T05:56:47.712Z,2.23
2022-09-07T05:59:14.356Z,1.93
2022-09-07T06:01:41.034Z,2.07
2022-09-07T06:04:08.112Z,1.80
2022-09-07T06:06:38.456Z,1.83
2022-09-07T06:09:05.030Z,2.10
2022-09-07T06:11:31.622Z,2.30
2022-09-07T06:13:58.121Z,2.60
2022-09-07T06:16:24.656Z,2.33
2022-09-07T06:18:51.328Z,2.20
2022-09-07T06:21:19.931Z,2.37
2022-09-07T06:23:48.148Z,2.03
2022-09-07T06:26:16.441Z,2.30
2022-09-07T06:28:47.598Z,2.53
2022-09-07T06:31:20.603Z,2.30
2022-09-07T06:33:48.295Z,2.00
2022-09-07T06:36:17.452Z,2.20
2022-09-07T06:38:44.904Z,2.00
2022-09-07T06:44:03.155Z,2.23
2022-09-07T06:49:16.286Z,1.83
2022-09-07T06:51:42.889Z,1.77
2022-09-07T06:56:56.459Z,2.10
2022-09-07T06:59:23.030Z,1.70
2022-09-07T07:01:49.574Z,2.00
2022-09-07T07:04:16.178Z,2.10
2022-09-07T07:06:42.846Z,1.87
2022-09-07T07:09:11.391Z,1.77
2022-09-07T07:11:38.240Z,1.60
2022-09-07T07:14:04.830Z,1.60
2022-09-07T07:16:31.773Z,2.03
2022-09-07T07:18:58.449Z,2.10
2022-09-07T07:21:25.097Z,2.10
2022-09-07T07:23:53.168Z,2.40
2022-09-07T07:26:27.674Z,1.90
2022-09-07T07:31:26.935Z,2.30
2022-09-07T07:33:53.723Z,13.33
2022-09-07T07:36:25.388Z,3.13
2022-09-07T07:39:02.481Z,2.30
2022-09-07T07:44:18.247Z,2.37
2022-09-07T07:46:50.483Z,2.40
2022-09-07T07:49:17.266Z,2.60
2022-09-07T07:54:30.348Z,2.57
2022-09-07T07:56:56.973Z,2.27
2022-09-07T07:59:23.561Z,2.50
2022-09-07T08:01:50.224Z,2.43
2022-09-07T08:04:17.016Z,3.30
2022-09-07T08:06:43.512Z,2.50
2022-09-07T08:09:11.465Z,1.63
2022-09-07T08:11:40.214Z,1.90
2022-09-07T08:14:08.317Z,2.40
2022-09-07T08:16:35.079Z,1.60
2022-09-07T08:19:02.038Z,1.60
2022-09-07T08:21:28.541Z,1.50
2022-09-07T08:23:55.546Z,1.80
2022-09-07T08:26:22.035Z,1.73
2022-09-07T08:28:48.679Z,1.80
2022-09-07T08:31:16.812Z,1.60
2022-09-07T08:33:43.501Z,1.70
2022-09-07T08:36:13.907Z,1.50
2022-09-07T08:38:40.807Z,1.53
2022-09-07T08:41:32.320Z,1.70
2022-09-07T08:44:01.040Z,1.80
2022-09-07T08:46:36.289Z,1.80
2022-09-07T08:49:05.165Z,1.70
2022-09-07T08:52:02.830Z,1.73
2022-09-07T08:54:29.406Z,1.87
2022-09-07T08:59:49.319Z,1.60
2022-09-07T09:02:38.425Z,1.53
2022-09-07T09:05:20.910Z,1.77
2022-09-07T09:08:09.626Z,1.77
2022-09-07T09:10:42.098Z,1.50
2022-09-07T09:13:11.276Z,1.80
2022-09-07T09:16:19.552Z,1.80
2022-09-07T09:19:06.197Z,1.97
2022-09-07T09:21:34.727Z,1.73
2022-09-07T09:24:19.167Z,1.80
2022-09-07T09:29:23.436Z,3.10
2022-09-07T09:31:49.943Z,2.40
2022-09-07T09:34:18.145Z,2.00
2022-09-07T09:36:48.493Z,2.23
2022-09-07T09:39:29.236Z,1.93
2022-09-07T09:41:58.355Z,2.07
2022-09-07T09:44:31.398Z,4.97
2022-09-07T09:49:45.257Z,2.73
2022-09-07T09:52:42.240Z,2.10
2022-09-07T10:06:20.719Z,2.00
2022-09-07T10:08:57.870Z,2.20
2022-09-07T10:14:51.239Z,2.60
2022-09-07T10:17:27.857Z,2.23
2022-09-07T10:19:58.907Z,1.90
2022-09-07T10:22:35.782Z,1.93
2022-09-07T10:25:04.713Z,1.70
2022-09-07T10:27:33.175Z,1.87
2022-09-07T10:30:00.611Z,10.87
2022-09-07T10:33:01.325Z,2.20
2022-09-07T10:35:33.676Z,2.07
2022-09-07T10:38:18.316Z,2.03
2022-09-07T10:41:07.478Z,2.20
2022-09-07T10:43:45.512Z,2.37
2022-09-07T10:50:21.828Z,2.30
2022-09-07T10:52:38.277Z,3.33
2022-09-07T10:55:16.144Z,2.50
2022-09-07T10:57:48.874Z,2.80
2022-09-07T11:00:18.353Z,3.03
2022-09-07T11:06:05.901Z,3.87
2022-09-07T11:14:35.396Z,3.33
2022-09-07T11:17:05.391Z,3.67
2022-09-07T11:19:37.241Z,3.70
2022-09-07T11:22:28.271Z,3.97
2022-09-07T11:28:19.615Z,3.40
2022-09-07T11:30:50.019Z,4.87
2022-09-07T11:33:24.671Z,4.50
2022-09-07T11:36:02.325Z,3.53
2022-09-07T11:38:39.249Z,3.83
2022-09-07T11:41:21.113Z,2.90
2022-09-07T11:44:21.801Z,2.97
2022-09-07T11:46:51.544Z,2.30
2022-09-07T11:49:28.708Z,2.00
2022-09-07T11:51:57.552Z,1.80
2022-09-07T11:54:32.815Z,2.00
2022-09-07T11:57:14.519Z,1.83
2022-09-07T11:59:56.202Z,2.07
2022-09-07T12:02:59.753Z,1.90
2022-09-07T12:06:00.960Z,1.57
2022-09-07T12:09:00.051Z,2.03
2022-09-07T12:11:41.501Z,2.97
2022-09-07T12:14:31.187Z,2.70
2022-09-07T12:17:39.517Z,2.87
2022-09-07T12:20:15.973Z,2.60
2022-09-07T12:22:55.524Z,2.43
2022-09-07T12:25:22.093Z,2.87
2022-09-07T12:27:49.421Z,2.77
2022-09-07T12:30:15.823Z,2.40
2022-09-07T12:32:56.962Z,2.17
2022-09-07T12:35:28.266Z,2.60
2022-09-07T12:37:56.248Z,2.20
2022-09-07T12:40:34.423Z,2.43
2022-09-07T12:43:13.236Z,2.30
2022-09-07T12:45:39.680Z,2.87
2022-09-07T12:48:15.293Z,3.10
2022-09-07T12:51:06.148Z,2.30
2022-09-07T12:53:35.457Z,2.17
2022-09-07T12:56:22.996Z,2.50
2022-09-07T12:58:55.419Z,2.30
2022-09-07T13:01:40.585Z,2.50
2022-09-07T13:04:38.086Z,2.50
2022-09-07T13:07:27.893Z,1.93
2022-09-07T13:10:00.233Z,2.47
2022-09-07T13:15:42.790Z,2.37
2022-09-07T13:18:30.753Z,2.20
2022-09-07T13:21:09.419Z,2.00
2022-09-07T13:23:37.920Z,2.20
2022-09-07T13:26:08.179Z,1.63
2022-09-07T13:28:54.837Z,1.73
2022-09-07T13:31:46.556Z,1.90
2022-09-07T13:34:32.735Z,1.80
2022-09-07T13:37:01.035Z,2.20
2022-09-07T13:39:28.647Z,1.80
2022-09-07T13:41:57.014Z,1.80
2022-09-07T13:44:31.384Z,2.20
2022-09-07T13:47:15.452Z,2.33
2022-09-07T13:49:56.032Z,2.00
2022-09-07T13:52:47.336Z,1.53
2022-09-07T13:55:46.528Z,1.90
2022-09-07T13:58:39.495Z,2.10
2022-09-07T14:01:08.418Z,1.70
2022-09-07T14:03:39.668Z,2.10
2022-09-07T14:06:21.376Z,1.90
2022-09-07T14:08:56.172Z,2.17
2022-09-07T14:11:26.241Z,2.13
2022-09-07T14:14:11.649Z,3.53
2022-09-07T14:16:38.416Z,3.13
2022-09-07T14:19:15.681Z,2.70
2022-09-07T14:21:42.568Z,2.67
2022-09-07T14:24:25.616Z,2.10
2022-09-07T14:26:53.007Z,2.50
2022-09-07T14:29:25.415Z,2.90
2022-09-07T14:31:52.054Z,2.30
2022-09-07T14:34:21.865Z,3.73
2022-09-07T14:36:48.884Z,3.30
2022-09-07T14:39:17.470Z,3.00
2022-09-07T14:41:44.696Z,2.40
2022-09-07T14:44:34.656Z,2.43
2022-09-07T14:47:06.375Z,2.47
2022-09-07T14:49:33.059Z,2.00
2022-09-07T14:52:00.795Z,2.10
2022-09-07T14:54:32.123Z,2.60
2022-09-07T14:57:06.394Z,2.30
2022-09-07T14:59:41.679Z,2.37
2022-09-07T15:02:27.190Z,1.70
2022-09-07T15:05:18.177Z,1.83
2022-09-07T15:07:50.031Z,3.90
2022-09-07T15:10:19.118Z,2.30
2022-09-07T15:12:45.606Z,2.40
2022-09-07T15:15:26.748Z,1.97
2022-09-07T15:18:05.894Z,1.90
2022-09-07T15:20:35.136Z,2.33
2022-09-07T15:23:16.156Z,2.33
2022-09-07T15:25:49.631Z,2.50
2022-09-07T15:34:11.517Z,2.13
2022-09-07T15:36:40.763Z,2.07
2022-09-07T15:39:08.666Z,2.43
2022-09-07T15:41:35.202Z,1.80
2022-09-07T15:44:01.897Z,2.20
2022-09-07T15:46:28.486Z,4.77
2022-09-07T15:48:55.725Z,2.27
2022-09-07T15:54:14.055Z,2.10
2022-09-07T15:56:42.605Z,1.83
2022-09-07T15:59:10.420Z,2.07
2022-09-07T16:01:54.700Z,1.93
2022-09-07T16:04:24.182Z,1.90
2022-09-07T16:06:50.951Z,2.10
2022-09-07T16:09:21.091Z,2.00
2022-09-07T16:11:50.057Z,2.37
2022-09-07T16:14:18.791Z,1.80
2022-09-07T16:19:35.002Z,5.20
2022-09-07T16:22:02.004Z,2.20
2022-09-07T16:24:28.739Z,2.10
2022-09-07T16:26:55.324Z,1.98
2022-09-07T16:29:21.914Z,1.85
2022-09-07T16:34:34.969Z,1.83
2022-09-07T16:37:01.551Z,1.83
2022-09-07T16:39:29.128Z,1.80
2022-09-07T16:41:55.898Z,1.70
2022-09-07T16:44:22.712Z,1.80
2022-09-07T16:46:50.418Z,1.60
2022-09-07T16:49:17.698Z,1.85
2022-09-07T16:51:45.712Z,1.80
2022-09-07T16:54:13.926Z,1.73
2022-09-07T16:56:40.634Z,2.00
2022-09-07T16:59:09.457Z,1.70
2022-09-07T17:01:38.128Z,5.13
2022-09-07T17:04:10.300Z,3.40
2022-09-07T17:06:37.300Z,1.80
2022-09-07T17:09:03.940Z,1.83
2022-09-07T17:11:33.033Z,1.50
2022-09-07T17:14:00.453Z,1.70
2022-09-07T17:16:29.789Z,1.50
2022-09-07T17:21:46.165Z,1.50
2022-09-07T17:24:12.822Z,1.47
2022-09-07T17:26:42.161Z,2.07
2022-09-07T17:29:09.009Z,1.90
2022-09-07T17:34:23.545Z,1.90
2022-09-07T17:36:50.274Z,1.73
2022-09-07T17:39:18.876Z,2.30
2022-09-07T17:41:52.724Z,2.40
2022-09-07T17:44:19.500Z,2.20
2022-09-07T17:46:46.143Z,1.93
2022-09-07T17:49:14.347Z,2.03
2022-09-07T17:51:40.896Z,2.00
2022-09-07T17:54:10.930Z,2.47
2022-09-07T17:56:39.884Z,1.93
2022-09-07T18:01:56.180Z,1.83
2022-09-07T18:04:23.193Z,1.97
2022-09-07T18:06:49.865Z,1.70
2022-09-07T18:09:16.398Z,1.80
2022-09-07T18:11:45.962Z,2.80
2022-09-07T18:14:14.931Z,3.50
2022-09-07T18:16:43.395Z,3.77
2022-09-07T18:19:11.246Z,3.27
2022-09-07T18:21:41.021Z,5.53
2022-09-07T18:24:19.835Z,7.17
2022-09-07T18:26:52.060Z,7.10
2022-09-07T18:29:34.021Z,3.40
2022-09-07T18:32:07.457Z,2.23
2022-09-07T18:34:34.954Z,2.30
2022-09-07T18:37:01.634Z,2.53
2022-09-07T18:39:28.563Z,2.30
2022-09-07T18:41:55.556Z,2.33
2022-09-07T18:47:08.924Z,2.27
2022-09-07T18:49:35.522Z,2.40
2022-09-07T18:54:50.280Z,2.50
2022-09-07T18:57:16.839Z,2.50
2022-09-07T18:59:43.266Z,2.60
2022-09-07T19:02:10.968Z,2.67
2022-09-07T19:07:29.649Z,2.33
2022-09-07T19:09:56.767Z,2.33
2022-09-07T19:12:24.603Z,2.97
2022-09-07T19:14:51.307Z,3.80
2022-09-07T19:17:17.944Z,3.40
2022-09-07T19:19:44.545Z,4.00
2022-09-07T19:22:11.107Z,4.20
2022-09-07T19:24:37.610Z,3.37
2022-09-07T19:27:04.909Z,4.10
2022-09-07T19:29:31.332Z,4.37
2022-09-07T19:32:07.936Z,3.70
2022-09-07T19:34:39.191Z,3.70
2022-09-07T19:37:07.745Z,4.07
2022-09-07T19:39:34.480Z,3.87
2022-09-07T19:42:03.194Z,3.67
2022-09-07T19:44:29.867Z,3.23
2022-09-07T19:46:56.657Z,3.33
2022-09-07T19:49:23.243Z,3.77
2022-09-07T19:51:51.860Z,3.97
2022-09-07T19:54:18.773Z,2.93
2022-09-07T19:56:45.585Z,3.60
2022-09-07T19:59:12.669Z,4.80
2022-09-07T20:01:40.676Z,5.20
2022-09-07T20:04:10.675Z,5.07
2022-09-07T20:06:39.243Z,5.03
2022-09-07T20:09:06.907Z,5.33
2022-09-07T20:11:34.818Z,5.90
2022-09-07T20:14:01.493Z,4.67
2022-09-07T20:16:28.471Z,4.93
2022-09-07T20:18:55.018Z,4.40
2022-09-07T20:21:23.818Z,3.87
2022-09-07T20:23:50.505Z,4.40
2022-09-07T20:26:18.673Z,3.10
2022-09-07T20:28:45.419Z,3.90
2022-09-07T20:31:14.028Z,3.50
2022-09-07T20:33:41.613Z,3.83
2022-09-07T20:36:13.316Z,3.70
2022-09-07T20:38:47.443Z,3.57
2022-09-07T20:41:22.598Z,3.50
2022-09-07T20:43:50.179Z,3.87
2022-09-07T20:46:17.370Z,3.73
2022-09-07T20:48:43.884Z,3.37
2022-09-07T20:51:13.035Z,3.23
2022-09-07T20:53:40.008Z,3.83
2022-09-07T20:56:18.136Z,3.60
2022-09-07T20:58:45.811Z,3.20
2022-09-07T21:01:14.076Z,3.80
2022-09-07T21:03:48.544Z,3.60
2022-09-07T21:06:16.174Z,3.33
2022-09-07T21:08:43.732Z,3.70
2022-09-07T21:11:22.517Z,3.70
2022-09-07T21:14:07.516Z,3.70
2022-09-07T21:16:35.277Z,3.10
2022-09-07T21:19:04.333Z,3.43
2022-09-07T21:21:38.296Z,3.33
2022-09-07T21:24:06.420Z,3.20
2022-09-07T21:26:32.938Z,3.30
2022-09-07T21:29:05.036Z,3.63
2022-09-07T21:31:33.526Z,3.77
2022-09-07T21:34:02.175Z,4.10
2022-09-07T21:36:29.357Z,3.70
2022-09-07T21:38:55.891Z,3.73
2022-09-07T21:41:24.041Z,3.40
2022-09-07T21:43:55.452Z,3.60
2022-09-07T21:46:22.143Z,3.43
2022-09-07T21:48:48.623Z,3.23
2022-09-07T21:51:15.394Z,3.47
2022-09-07T21:53:42.833Z,3.60
2022-09-07T21:56:14.097Z,3.37
2022-09-07T21:58:41.207Z,3.67
2022-09-07T22:01:18.510Z,3.57
2022-09-07T22:03:59.300Z,3.90
2022-09-07T22:06:27.284Z,3.17
2022-09-07T22:08:54.191Z,3.70
2022-09-07T22:11:23.298Z,3.50
2022-09-07T22:13:53.979Z,3.80
2022-09-07T22:16:20.622Z,3.90
2022-09-07T22:18:47.343Z,4.70
2022-09-07T22:21:17.086Z,3.93
2022-09-07T22:23:46.310Z,3.93
2022-09-07T22:26:14.078Z,4.57
2022-09-07T22:28:40.870Z,4.57
2022-09-07T22:34:10.673Z,4.53
2022-09-07T22:36:39.852Z,4.13
2022-09-07T22:39:09.018Z,5.10
2022-09-07T22:41:38.152Z,4.87
2022-09-07T22:44:05.627Z,4.00
2022-09-07T22:46:37.165Z,4.30
2022-09-07T22:49:04.756Z,4.07
2022-09-07T22:51:31.253Z,4.40
2022-09-07T22:53:58.046Z,4.10
2022-09-07T22:56:31.053Z,4.00
2022-09-07T22:59:00.177Z,3.70
2022-09-07T23:01:28.725Z,3.70
2022-09-07T23:03:56.246Z,3.90
2022-09-07T23:06:23.915Z,3.80
2022-09-07T23:08:51.567Z,3.60
2022-09-07T23:11:18.522Z,4.10
2022-09-07T23:13:45.327Z,3.97
2022-09-07T23:16:12.376Z,4.00
2022-09-07T23:18:40.879Z,3.93
2022-09-07T23:21:08.516Z,4.67
2022-09-07T23:23:35.189Z,4.97
2022-09-07T23:26:02.911Z,4.07
2022-09-07T23:28:30.454Z,4.47
2022-09-07T23:30:57.849Z,4.40
2022-09-07T23:33:26.162Z,4.27
2022-09-07T23:36:04.888Z,4.57
2022-09-07T23:38:32.492Z,4.03
2022-09-07T23:41:00.057Z,4.30
2022-09-07T23:43:27.644Z,4.10
2022-09-07T23:45:54.568Z,4.20
2022-09-07T23:48:21.862Z,4.17
2022-09-07T23:50:49.081Z,4.07
2022-09-07T23:53:16.034Z,3.63
2022-09-07T23:55:42.861Z,4.60
2022-09-07T23:58:10.642Z,5.40
